Western Springs, IL (60558)

6:53 AM CDT on May 23, 2015 (GMT -0500)
Ridgewood | | Change Station
CLOSE
Current Station
Personal Weather Station
Location: Western Springs, IL
Elevation: 655 ft
Nearby Weather Stations

Elev 655 ft 41.79 °N, 87.90 °W | Updated 3 minutes ago

Partly Cloudy
Partly Cloudy
49.6 °F
Feels Like 50 °F
N
0.7
Wind Variable Wind from North
Gusts 0.7 mph

Today
High -- | Low -- °F
--% Chance of Precip.
Yesterday
High -- | Low -- °F
Precip. -- in
5:24 AM 8:12 PM
Waxing Crescent, 29% visible
Pressure 30.33 in
Visibility 10.0 miles
Clouds Scattered Clouds 19000 ft
Windchill 50 °F
Dew Point 45 °F
Humidity 85%
Rainfall 0.00 in
Snow Depth Not available.
UV 0 out of 12
Pollen 7.80 out of 12
Air Quality Not available.
Flu Activity Sporadic
METAR KMDW 231053Z 08003KT 10SM SCT190 13/01 A3033 RMK AO2 SLP269 T01280011

More Conditions Fewer Conditions

Pressure 30.33 in
Visibility 10.0 miles
Clouds Scattered Clouds 19000 ft
Windchill 50 °F
Dew Point 45 °F
Humidity 85%
Rainfall 0.00 in
Snow Depth Not available.
UV 0 out of 12
Pollen 7.80 out of 12
Air Quality Not available.
Flu Activity Sporadic
METAR KMDW 231053Z 08003KT 10SM SCT190 13/01 A3033 RMK AO2 SLP269 T01280011

More Conditions Fewer Conditions

10-Day Weather Forecast

Almanac

Astronomy

May. 23, 2015 Rise Set
Actual Time
Civil Twilight
Nautical Twilight
Astronomical Twilight
Moon
Length of Visible Light
Length of Day
Tomorrow will be .
, % of the Moon is Illuminated

Today's Extremes

State Highs State Lows

Community

WunderPhotos

Upload Photos

1,823,435 photos uploaded!

WunderBlogs® & News

Nearby

Air Quality

  Air Quality AQ Index Pollutant
Not available.

Snow Depth

Station Depth Elevation

Earthquake Activity

City Distance Mag. Time & Date
Minimum magnitude displayed is 2.5.

Coastal Water Temperatures

Place Temperature

Stations

Nearby Weather Stations

Station Location Temp. Windchill Dew Point Humidity Wind Precip. Elev Updated Type